Time;durP1;ratioP1;P1;durP2;ratioP2;P2;SDS_P1;SDS_P2;PMS_P1;PMS_P2;Temp;Humidity;BMP_temperature;BMP_pressure;BME280_temperature;BME280_humidity;BME280_pressure;Samples;Min_cycle;Max_cycle;Signal;HPM_P1;HPM_P2
2022/03/22 00:00:20;;;;;;;7.83;4.57;;;6.10;58.90;;;;;;5011823;28;20716;-67
2022/03/22 00:02:45;;;;;;;10.80;5.43;;;6.10;58.90;;;;;;5011611;28;20787;-67
2022/03/22 00:05:11;;;;;;;13.00;5.80;;;6.00;59.00;;;;;;5011518;28;20419;-66
2022/03/22 00:07:36;;;;;;;13.60;6.30;;;6.00;59.10;;;;;;5012970;28;20230;-66
2022/03/22 00:10:02;;;;;;;5.50;4.90;;;6.00;59.20;;;;;;5019764;28;20182;-66
2022/03/22 00:12:28;;;;;;;5.73;4.50;;;6.00;59.10;;;;;;5031234;28;20163;-66
2022/03/22 00:14:54;;;;;;;6.17;4.43;;;5.90;59.10;;;;;;5018303;28;20425;-67
2022/03/22 00:17:21;;;;;;;7.77;5.70;;;5.80;59.30;;;;;;5011236;28;20429;-67
2022/03/22 00:19:47;;;;;;;7.03;6.43;;;5.90;59.40;;;;;;5011748;28;20470;-67
2022/03/22 00:22:14;;;;;;;5.23;4.40;;;5.90;59.20;;;;;;5011484;28;20473;-67
2022/03/22 00:24:40;;;;;;;6.97;4.70;;;5.80;59.20;;;;;;5011515;28;20450;-67
2022/03/22 00:27:05;;;;;;;5.83;5.27;;;5.80;59.30;;;;;;5023251;28;20492;-66
2022/03/22 00:29:31;;;;;;;8.93;4.93;;;5.80;59.30;;;;;;5031109;28;20203;-67
2022/03/22 00:31:56;;;;;;;14.00;7.77;;;5.80;59.30;;;;;;5031052;28;20179;-66
2022/03/22 00:34:23;;;;;;;6.60;5.70;;;5.80;59.80;;;;;;5031455;28;20199;-66
2022/03/22 00:36:49;;;;;;;7.80;5.30;;;6.20;60.00;;;;;;5031430;28;20194;-66
2022/03/22 00:39:16;;;;;;;6.97;4.83;;;6.20;59.40;;;;;;5031702;28;20502;-67
2022/03/22 00:41:41;;;;;;;5.67;5.00;;;6.00;58.90;;;;;;5031353;28;20535;-69
2022/03/22 00:44:08;;;;;;;6.83;4.70;;;5.90;59.40;;;;;;5031222;28;20406;-67
2022/03/22 00:46:34;;;;;;;6.70;5.07;;;5.80;59.40;;;;;;5031159;28;20265;-66
2022/03/22 00:49:02;;;;;;;7.47;6.00;;;5.80;59.30;;;;;;5031219;28;20469;-67
2022/03/22 00:51:28;;;;;;;8.47;5.67;;;5.80;60.30;;;;;;5031642;28;20410;-66
2022/03/22 00:53:54;;;;;;;6.93;6.23;;;5.70;59.50;;;;;;5031151;28;20413;-67
2022/03/22 00:56:19;;;;;;;7.27;4.83;;;5.70;59.60;;;;;;5030821;28;20390;-67
2022/03/22 00:58:45;;;;;;;6.30;5.13;;;5.70;59.80;;;;;;5030853;28;20347;-67
2022/03/22 01:01:10;;;;;;;7.50;5.10;;;5.60;60.00;;;;;;5030988;28;20592;-67
2022/03/22 01:03:36;;;;;;;5.07;4.00;;;5.60;60.10;;;;;;5033097;28;20182;-67
2022/03/22 01:06:02;;;;;;;10.97;5.40;;;5.50;61.00;;;;;;5034543;28;20597;-66
2022/03/22 01:08:31;;;;;;;5.77;4.33;;;5.50;61.20;;;;;;5034564;28;20679;-67
2022/03/22 01:10:56;;;;;;;6.67;4.03;;;5.50;61.20;;;;;;5034572;28;20430;-66
2022/03/22 01:13:27;;;;;;;5.53;4.97;;;5.50;61.50;;;;;;5034388;28;20449;-66
2022/03/22 01:15:52;;;;;;;9.43;5.17;;;5.40;61.50;;;;;;5034608;28;20171;-67
2022/03/22 01:18:18;;;;;;;6.37;5.73;;;5.30;61.80;;;;;;5034417;28;20430;-67
2022/03/22 01:20:47;;;;;;;6.07;4.90;;;5.30;62.20;;;;;;5034443;28;20187;-66
2022/03/22 01:23:14;;;;;;;5.63;4.97;;;5.30;62.40;;;;;;5034220;28;20835;-67
2022/03/22 01:25:43;;;;;;;8.20;5.67;;;5.20;62.70;;;;;;5034205;28;21115;-67
2022/03/22 01:28:11;;;;;;;5.73;4.40;;;5.20;62.80;;;;;;5033873;28;20472;-66
2022/03/22 01:30:38;;;;;;;6.80;5.63;;;5.10;62.90;;;;;;5034425;28;20395;-67
2022/03/22 01:33:04;;;;;;;8.93;6.70;;;5.20;63.00;;;;;;5034051;28;20403;-67
2022/03/22 01:35:30;;;;;;;8.27;4.70;;;5.10;63.00;;;;;;5034092;28;20429;-66
2022/03/22 01:37:57;;;;;;;4.87;4.40;;;5.10;63.30;;;;;;5028416;28;20469;-67
2022/03/22 01:40:24;;;;;;;8.07;4.87;;;5.00;63.50;;;;;;5026069;28;20410;-67
2022/03/22 01:42:50;;;;;;;6.70;4.43;;;5.00;63.20;;;;;;5033548;28;20402;-67
2022/03/22 01:45:16;;;;;;;6.97;5.03;;;4.90;63.50;;;;;;5014393;28;20411;-67
2022/03/22 01:47:43;;;;;;;6.83;5.60;;;4.80;64.10;;;;;;5013599;28;20485;-66
2022/03/22 01:50:11;;;;;;;10.50;6.60;;;4.80;64.30;;;;;;5013849;28;20465;-66
2022/03/22 01:52:43;;;;;;;6.50;5.43;;;4.80;64.30;;;;;;5013762;28;20412;-67
2022/03/22 01:55:11;;;;;;;10.77;5.30;;;4.80;64.70;;;;;;5013534;28;20914;-67
2022/03/22 01:57:36;;;;;;;6.10;4.73;;;4.80;64.70;;;;;;5029769;28;20434;-67
2022/03/22 02:00:06;;;;;;;8.50;5.30;;;4.70;64.40;;;;;;5033376;28;20406;-67
2022/03/22 02:08:05;;;;;;;8.93;5.63;;;4.70;64.90;;;;;;5033219;28;21064;-67
2022/03/22 02:10:31;;;;;;;6.60;5.23;;;4.60;65.20;;;;;;5033167;28;20413;-67
2022/03/22 02:12:56;;;;;;;9.47;5.30;;;4.60;65.70;;;;;;5033170;28;20497;-66
2022/03/22 02:15:22;;;;;;;6.67;4.90;;;4.60;65.80;;;;;;5032393;28;20265;-66
2022/03/22 02:17:47;;;;;;;8.07;4.93;;;4.60;67.00;;;;;;5033126;28;20196;-67
2022/03/22 02:20:14;;;;;;;6.83;5.87;;;4.50;66.30;;;;;;5033036;28;20206;-66
2022/03/22 02:22:51;;;;;;;6.07;5.20;;;4.40;66.20;;;;;;5033212;28;20239;-66
2022/03/22 02:25:18;;;;;;;8.23;4.50;;;4.40;66.70;;;;;;5014088;28;20418;-66
2022/03/22 02:27:48;;;;;;;4.67;4.23;;;4.40;66.80;;;;;;5032669;28;20523;-66
2022/03/22 02:30:15;;;;;;;9.77;5.40;;;4.40;67.30;;;;;;5028803;28;20472;-67
2022/03/22 02:32:59;;;;;;;5.33;4.40;;;4.40;67.30;;;;;;5032328;28;20415;-66
2022/03/22 02:35:25;;;;;;;7.37;5.00;;;4.30;66.80;;;;;;5033216;28;20449;-66
2022/03/22 02:37:51;;;;;;;6.37;4.90;;;4.30;67.10;;;;;;5032910;28;20459;-68
2022/03/22 02:40:18;;;;;;;6.73;4.93;;;4.30;67.30;;;;;;5034162;28;20203;-66
2022/03/22 02:42:54;;;;;;;9.40;5.30;;;4.30;67.30;;;;;;5027530;28;20486;-66
2022/03/22 02:45:21;;;;;;;7.30;5.47;;;4.20;67.50;;;;;;5032738;28;20410;-66
2022/03/22 02:47:46;;;;;;;8.40;4.70;;;4.20;67.80;;;;;;5021705;28;20988;-67
2022/03/22 02:50:13;;;;;;;8.07;6.60;;;4.20;67.90;;;;;;5012734;28;20403;-67
2022/03/22 02:52:42;;;;;;;8.20;6.20;;;4.20;68.10;;;;;;5012489;28;20176;-67
2022/03/22 02:55:09;;;;;;;8.03;4.73;;;4.20;68.40;;;;;;5036668;23;20482;-69
2022/03/22 02:57:36;;;;;;;4.43;3.87;;;4.10;68.50;;;;;;5012853;28;20404;-69
2022/03/22 03:00:04;;;;;;;6.50;5.00;;;4.00;68.90;;;;;;5013080;28;20780;-69
2022/03/22 03:02:30;;;;;;;6.57;4.90;;;4.00;68.60;;;;;;4995045;28;21004;-69
2022/03/22 03:04:56;;;;;;;13.80;4.83;;;4.00;68.60;;;;;;5012684;28;20562;-69
2022/03/22 03:07:21;;;;;;;7.07;5.40;;;4.00;69.10;;;;;;5012648;28;20172;-69
2022/03/22 03:09:47;;;;;;;7.97;4.50;;;4.00;68.90;;;;;;5012843;28;20418;-69
2022/03/22 03:12:12;;;;;;;7.40;5.00;;;4.00;68.30;;;;;;5017853;28;20184;-69
2022/03/22 03:14:38;;;;;;;8.10;4.40;;;4.10;68.80;;;;;;5012518;28;20215;-69
2022/03/22 03:17:08;;;;;;;6.27;3.97;;;4.10;68.60;;;;;;5012431;28;20646;-69
2022/03/22 03:19:34;;;;;;;5.57;4.43;;;4.00;68.50;;;;;;5013985;28;20191;-69
2022/03/22 03:21:59;;;;;;;8.93;5.37;;;4.00;69.30;;;;;;5015404;28;20982;-70
2022/03/22 03:24:25;;;;;;;6.63;4.20;;;4.00;68.50;;;;;;5015129;28;20192;-69
2022/03/22 03:26:51;;;;;;;6.00;4.27;;;4.00;68.40;;;;;;5013246;28;20416;-69
2022/03/22 03:29:16;;;;;;;6.87;4.10;;;4.00;69.10;;;;;;5012310;28;20647;-69
2022/03/22 03:31:42;;;;;;;6.23;4.83;;;4.00;68.60;;;;;;5012347;28;20180;-69
2022/03/22 03:34:07;;;;;;;4.83;4.30;;;4.00;68.70;;;;;;5012626;28;20280;-69
2022/03/22 03:36:33;;;;;;;11.77;5.43;;;3.90;69.30;;;;;;5012587;28;20164;-69
2022/03/22 03:39:01;;;;;;;6.57;5.80;;;3.90;69.30;;;;;;5012195;28;20461;-69
2022/03/22 03:47:04;;;;;;;7.77;5.17;;;3.70;70.40;;;;;;5012614;28;20439;-69
2022/03/22 03:49:34;;;;;;;6.13;5.10;;;3.70;71.10;;;;;;5012358;28;20548;-69
2022/03/22 03:52:00;;;;;;;9.67;6.33;;;3.70;71.00;;;;;;5012237;28;20411;-69
2022/03/22 03:54:25;;;;;;;9.93;4.50;;;3.70;70.90;;;;;;5011882;28;20451;-69
2022/03/22 03:56:51;;;;;;;7.23;5.30;;;3.60;71.10;;;;;;4994417;28;20263;-69
2022/03/22 03:59:16;;;;;;;8.93;5.93;;;3.60;71.20;;;;;;5012187;28;20176;-69
2022/03/22 04:01:44;;;;;;;6.87;5.13;;;3.60;71.30;;;;;;5011926;28;20177;-69
2022/03/22 04:04:09;;;;;;;7.80;4.47;;;3.60;71.30;;;;;;5011984;28;20192;-68
2022/03/22 04:06:35;;;;;;;8.10;5.10;;;3.60;71.20;;;;;;5011831;28;20414;-69
2022/03/22 04:09:00;;;;;;;7.63;5.13;;;3.60;71.00;;;;;;5012119;28;20469;-69
2022/03/22 04:11:26;;;;;;;8.40;6.57;;;3.60;71.40;;;;;;5011888;28;20168;-68
2022/03/22 04:13:51;;;;;;;7.17;4.70;;;3.60;71.20;;;;;;5011866;28;20176;-68
2022/03/22 04:16:17;;;;;;;6.17;5.13;;;3.60;71.40;;;;;;5014842;28;20733;-68
2022/03/22 04:18:42;;;;;;;8.80;4.37;;;3.50;71.30;;;;;;5011757;28;20527;-69
2022/03/22 04:21:08;;;;;;;6.63;5.57;;;3.60;71.20;;;;;;5012366;28;20176;-70
2022/03/22 04:23:33;;;;;;;5.47;4.93;;;3.60;71.10;;;;;;5014833;28;20630;-70
2022/03/22 04:25:59;;;;;;;7.30;5.60;;;3.60;71.60;;;;;;5012165;28;20638;-68
2022/03/22 04:33:53;;;;;;;4.83;4.27;;;3.50;71.40;;;;;;5011572;28;20474;-69
2022/03/22 04:36:19;;;;;;;8.37;5.30;;;3.50;71.50;;;;;;5015160;28;20431;-69
2022/03/22 04:38:44;;;;;;;8.33;5.20;;;3.50;71.80;;;;;;5014049;28;20249;-70
2022/03/22 04:41:10;;;;;;;9.40;5.87;;;3.50;71.90;;;;;;5015548;28;20183;-69
2022/03/22 04:43:35;;;;;;;7.17;5.00;;;3.50;71.70;;;;;;5015467;28;20180;-69
2022/03/22 04:46:01;;;;;;;6.47;5.30;;;3.40;71.80;;;;;;5015310;28;20200;-69
2022/03/22 04:48:27;;;;;;;8.10;4.70;;;3.40;72.50;;;;;;4998014;28;20207;-69
2022/03/22 04:56:43;;;;;;;6.43;5.07;;;3.50;72.20;;;;;;5015392;28;20415;-68
2022/03/22 04:56:48;;;;;;;6.87;5.47;;;3.40;72.40;;;;;;4981795;28;20503;-69
2022/03/22 04:59:16;;;;;;;4.33;3.93;;;3.40;72.50;;;;;;5012221;28;20468;-69
2022/03/22 05:01:45;;;;;;;13.53;5.80;;;3.40;72.40;;;;;;5015396;28;20399;-70
2022/03/22 05:04:10;;;;;;;11.10;4.87;;;3.30;72.60;;;;;;5015232;28;20843;-69
2022/03/22 05:06:40;;;;;;;15.87;4.70;;;3.30;72.60;;;;;;5015322;28;20473;-69
2022/03/22 05:09:06;;;;;;;7.13;5.37;;;3.30;73.10;;;;;;5015868;28;20211;-69
2022/03/22 05:11:32;;;;;;;10.10;5.40;;;3.20;73.40;;;;;;5015620;28;20492;-69
2022/03/22 05:13:58;;;;;;;7.33;5.17;;;3.20;73.40;;;;;;5015552;28;20419;-69
2022/03/22 05:16:24;;;;;;;7.37;6.07;;;3.20;73.70;;;;;;5015732;28;20643;-68
2022/03/22 05:18:51;;;;;;;8.53;6.13;;;3.20;74.20;;;;;;4997109;28;20790;-69
2022/03/22 05:21:17;;;;;;;5.37;3.97;;;3.20;74.20;;;;;;5014719;28;20414;-69
2022/03/22 05:23:45;;;;;;;9.77;6.23;;;3.20;75.20;;;;;;5014616;28;20415;-69
2022/03/22 05:26:11;;;;;;;5.53;5.03;;;3.10;74.70;;;;;;5014523;28;20442;-69
2022/03/22 05:28:37;;;;;;;7.10;4.83;;;3.20;75.00;;;;;;5014491;28;20451;-69
2022/03/22 05:31:03;;;;;;;10.00;6.47;;;3.20;75.00;;;;;;5011145;28;20427;-69
2022/03/22 05:33:29;;;;;;;5.60;4.60;;;3.10;75.00;;;;;;5014276;28;20446;-69
2022/03/22 05:35:54;;;;;;;5.33;4.60;;;3.10;75.20;;;;;;5017646;28;20438;-69
2022/03/22 05:38:20;;;;;;;5.37;4.87;;;3.20;75.30;;;;;;5034539;28;20547;-69
2022/03/22 05:40:46;;;;;;;13.03;7.40;;;3.20;75.30;;;;;;5034796;28;20513;-69
2022/03/22 05:43:12;;;;;;;10.30;5.50;;;3.20;75.40;;;;;;5035059;28;20168;-69
2022/03/22 05:45:37;;;;;;;6.20;5.60;;;3.20;75.30;;;;;;5036725;28;20198;-69
2022/03/22 05:48:05;;;;;;;10.20;6.00;;;3.30;75.40;;;;;;5036519;28;20649;-69
2022/03/22 05:50:32;;;;;;;11.30;6.30;;;3.30;75.40;;;;;;5033364;28;20521;-68
2022/03/22 05:52:58;;;;;;;7.73;6.10;;;3.40;75.30;;;;;;5034039;28;20403;-69
2022/03/22 05:55:23;;;;;;;7.60;6.77;;;3.50;75.20;;;;;;5033605;28;20476;-69
2022/03/22 05:57:48;;;;;;;11.67;5.00;;;3.50;74.70;;;;;;5013922;28;20211;-69
2022/03/22 06:00:14;;;;;;;8.60;5.47;;;3.60;75.00;;;;;;5013958;28;20255;-69
2022/03/22 06:02:43;;;;;;;11.50;6.90;;;3.70;74.80;;;;;;5013867;28;20186;-69
2022/03/22 06:05:11;;;;;;;8.03;6.00;;;3.90;73.90;;;;;;5012563;28;20496;-69
2022/03/22 06:07:38;;;;;;;5.80;4.87;;;4.60;73.00;;;;;;5013780;28;20419;-69
2022/03/22 06:10:05;;;;;;;6.97;5.37;;;5.10;70.50;;;;;;5015527;28;20514;-69
2022/03/22 06:12:40;;;;;;;5.97;4.00;;;5.90;69.40;;;;;;4998452;28;20506;-68
2022/03/22 06:15:29;;;;;;;7.27;6.40;;;6.50;67.30;;;;;;5013627;28;20530;-69
2022/03/22 06:17:58;;;;;;;17.80;5.43;;;7.20;64.40;;;;;;5013679;28;20450;-69
2022/03/22 06:20:27;;;;;;;8.73;6.10;;;7.70;63.10;;;;;;5013659;28;20443;-69
2022/03/22 06:22:53;;;;;;;10.00;5.70;;;7.80;61.40;;;;;;5013527;28;20414;-69
2022/03/22 06:25:19;;;;;;;6.70;5.00;;;8.30;60.10;;;;;;5013317;28;20900;-69
2022/03/22 06:27:47;;;;;;;13.63;5.10;;;8.50;59.30;;;;;;5013661;28;20211;-69
2022/03/22 06:30:15;;;;;;;7.90;6.07;;;8.90;59.50;;;;;;5013642;28;20407;-69
2022/03/22 06:32:49;;;;;;;10.17;6.40;;;9.20;58.10;;;;;;5010225;28;20853;-69
2022/03/22 06:35:20;;;;;;;9.40;5.03;;;9.70;57.10;;;;;;5013447;28;20427;-69
2022/03/22 06:37:47;;;;;;;12.07;6.30;;;10.00;55.90;;;;;;5013124;28;20441;-70
2022/03/22 06:40:14;;;;;;;7.83;5.97;;;9.90;56.30;;;;;;5028882;28;20509;-68
2022/03/22 06:42:40;;;;;;;8.17;6.27;;;10.20;55.50;;;;;;5032712;28;20422;-68
2022/03/22 06:45:07;;;;;;;12.47;7.60;;;10.30;54.80;;;;;;5032823;28;20796;-68
2022/03/22 06:47:33;;;;;;;11.33;6.57;;;10.20;54.70;;;;;;5032723;28;20421;-68
2022/03/22 06:50:00;;;;;;;10.07;7.10;;;10.40;54.20;;;;;;5032817;28;20406;-68
2022/03/22 06:52:26;;;;;;;8.50;6.53;;;10.30;55.00;;;;;;5032731;28;20862;-69
2022/03/22 06:54:51;;;;;;;13.50;7.47;;;10.70;54.80;;;;;;5033478;28;20457;-69
2022/03/22 06:57:17;;;;;;;9.33;6.97;;;10.80;54.60;;;;;;5033370;28;20849;-69
2022/03/22 06:59:42;;;;;;;7.33;6.17;;;10.40;54.50;;;;;;5032860;28;20168;-69
2022/03/22 07:02:08;;;;;;;7.67;6.57;;;10.70;54.10;;;;;;5032519;28;20246;-69
2022/03/22 07:04:34;;;;;;;11.00;6.97;;;11.40;53.50;;;;;;5032901;28;20238;-69
2022/03/22 07:07:00;;;;;;;8.87;6.80;;;10.90;53.60;;;;;;5032554;28;20509;-69
2022/03/22 07:09:25;;;;;;;9.53;6.77;;;11.50;53.30;;;;;;5032385;28;20287;-69
2022/03/22 07:11:51;;;;;;;11.43;6.60;;;11.30;53.80;;;;;;5032293;28;20187;-69
2022/03/22 07:14:23;;;;;;;10.13;7.00;;;10.80;52.90;;;;;;5032395;28;20184;-68
2022/03/22 07:16:48;;;;;;;10.97;6.87;;;11.10;53.40;;;;;;5032198;28;20178;-68
2022/03/22 07:19:14;;;;;;;9.90;7.00;;;10.90;51.40;;;;;;5032309;28;20419;-68
2022/03/22 07:21:41;;;;;;;12.83;8.33;;;11.90;51.50;;;;;;5032076;28;20177;-68
2022/03/22 07:24:08;;;;;;;12.40;7.63;;;12.50;51.40;;;;;;5032376;28;20468;-69
2022/03/22 07:26:33;;;;;;;14.40;7.30;;;12.40;50.50;;;;;;5032139;28;20906;-69
2022/03/22 07:28:59;;;;;;;14.23;7.17;;;12.90;49.80;;;;;;5024906;28;20469;-69
2022/03/22 07:31:24;;;;;;;12.00;9.07;;;12.60;49.20;;;;;;5011621;28;20603;-69
2022/03/22 07:33:50;;;;;;;8.13;7.33;;;13.20;49.10;;;;;;5012138;28;20173;-69
2022/03/22 07:36:15;;;;;;;10.43;7.97;;;13.00;48.20;;;;;;5012184;28;20269;-69
2022/03/22 07:38:41;;;;;;;8.63;7.73;;;13.90;47.30;;;;;;5003489;28;20372;-69
2022/03/22 07:41:07;;;;;;;8.53;7.57;;;12.80;48.50;;;;;;5006686;28;20221;-68
2022/03/22 07:43:33;;;;;;;9.67;8.20;;;12.90;50.20;;;;;;5011058;28;20320;-68
2022/03/22 07:45:58;;;;;;;9.07;6.90;;;12.10;49.30;;;;;;4996793;28;20518;-69
2022/03/22 07:48:24;;;;;;;11.33;7.00;;;11.80;50.50;;;;;;5011906;28;20577;-68
2022/03/22 07:53:33;;;;;;;9.30;6.80;;;12.40;48.40;;;;;;4996990;28;20188;-68
2022/03/22 07:55:59;;;;;;;11.00;7.90;;;12.10;49.70;;;;;;5006476;28;20953;-69
2022/03/22 07:58:24;;;;;;;7.60;6.80;;;12.90;48.60;;;;;;5012910;28;20174;-71
2022/03/22 08:00:50;;;;;;;12.20;7.57;;;12.90;49.10;;;;;;5013490;28;20187;-69
2022/03/22 08:03:17;;;;;;;8.80;7.57;;;12.40;48.70;;;;;;5011511;28;20171;-69
2022/03/22 08:05:46;;;;;;;7.67;6.87;;;13.60;48.20;;;;;;5012123;28;20280;-69
2022/03/22 08:08:12;;;;;;;10.13;7.77;;;13.20;47.10;;;;;;4996765;28;20454;-69
2022/03/22 08:10:38;;;;;;;10.93;8.63;;;13.30;46.80;;;;;;4997904;28;20410;-69
2022/03/22 08:13:06;;;;;;;8.50;7.40;;;13.50;47.20;;;;;;5013404;28;20708;-69
2022/03/22 08:15:32;;;;;;;8.50;6.27;;;14.00;46.90;;;;;;5015698;28;20395;-69
2022/03/22 08:17:58;;;;;;;9.90;7.20;;;13.50;45.90;;;;;;5015697;28;20865;-68
2022/03/22 08:20:27;;;;;;;9.73;7.57;;;13.90;46.70;;;;;;5016033;28;21038;-70
2022/03/22 08:23:04;;;;;;;9.33;8.07;;;14.90;45.10;;;;;;5005409;28;20464;-70
2022/03/22 08:25:40;;;;;;;9.00;7.37;;;15.90;43.40;;;;;;4996285;28;20443;-72
2022/03/22 08:28:08;;;;;;;7.63;6.80;;;15.60;43.70;;;;;;5022931;28;20452;-69
2022/03/22 08:30:34;;;;;;;9.93;6.97;;;15.00;43.20;;;;;;5025761;28;20430;-70
2022/03/22 08:33:09;;;;;;;8.27;6.33;;;15.50;42.20;;;;;;5010956;28;20414;-69
2022/03/22 08:35:36;;;;;;;7.83;7.03;;;14.70;42.70;;;;;;5015260;28;20436;-69
2022/03/22 08:38:02;;;;;;;6.93;6.17;;;15.10;43.20;;;;;;5015224;28;20408;-68
2022/03/22 08:40:28;;;;;;;7.30;6.60;;;15.00;42.30;;;;;;5014599;28;20514;-68
2022/03/22 08:42:56;;;;;;;8.60;6.73;;;15.50;42.80;;;;;;5015233;28;20403;-68
2022/03/22 08:45:24;;;;;;;8.20;6.07;;;14.90;43.20;;;;;;4997577;28;20637;-70
2022/03/22 08:47:51;;;;;;;6.90;6.00;;;14.80;41.80;;;;;;5015189;28;20940;-71
2022/03/22 08:50:19;;;;;;;10.23;6.27;;;14.20;43.10;;;;;;5015302;28;20409;-72
2022/03/22 08:52:47;;;;;;;7.03;5.50;;;14.70;42.80;;;;;;5015366;28;20502;-69
2022/03/22 08:55:14;;;;;;;7.00;5.30;;;14.70;43.50;;;;;;5014946;28;20447;-69
2022/03/22 08:57:41;;;;;;;7.53;6.23;;;15.10;42.70;;;;;;5014244;28;20425;-68
2022/03/22 09:00:09;;;;;;;7.70;5.83;;;15.40;42.10;;;;;;5015156;28;20464;-68
2022/03/22 09:02:38;;;;;;;6.93;6.03;;;15.30;41.80;;;;;;5003172;28;20407;-70
2022/03/22 09:07:50;;;;;;;9.03;6.33;;;16.20;40.50;;;;;;5015577;28;20447;-69
2022/03/22 09:10:20;;;;;;;7.17;6.47;;;15.20;40.20;;;;;;5016431;28;20522;-70
2022/03/22 09:12:48;;;;;;;5.90;5.30;;;14.80;40.70;;;;;;5017517;28;20759;-70
2022/03/22 09:15:16;;;;;;;7.23;6.43;;;15.10;39.90;;;;;;5014626;28;20433;-69
2022/03/22 09:17:42;;;;;;;7.00;5.87;;;15.50;40.80;;;;;;5014992;28;20410;-70
2022/03/22 09:20:12;;;;;;;7.10;5.63;;;16.10;39.80;;;;;;5014806;28;20411;-70
2022/03/22 09:22:37;;;;;;;7.03;6.37;;;17.20;38.50;;;;;;4997187;28;20271;-69
2022/03/22 09:25:03;;;;;;;10.00;6.50;;;16.60;37.10;;;;;;5014239;28;20857;-69
2022/03/22 09:27:29;;;;;;;7.10;6.13;;;16.80;38.40;;;;;;5016602;28;20193;-69
2022/03/22 09:29:56;;;;;;;8.90;6.10;;;16.70;39.00;;;;;;5015571;28;20178;-69
2022/03/22 09:32:22;;;;;;;8.40;6.47;;;16.70;37.60;;;;;;5006185;28;20181;-69
2022/03/22 09:34:47;;;;;;;7.67;6.10;;;17.00;38.40;;;;;;4994727;28;20435;-68
2022/03/22 09:37:17;;;;;;;7.03;6.40;;;16.30;38.70;;;;;;4999280;28;20174;-70
2022/03/22 09:39:43;;;;;;;7.30;5.13;;;15.70;38.70;;;;;;5014276;28;20173;-70
2022/03/22 09:42:09;;;;;;;7.13;6.30;;;15.90;38.90;;;;;;5014386;28;20469;-70
2022/03/22 09:44:35;;;;;;;6.17;5.57;;;16.10;39.10;;;;;;5014311;28;20936;-69
2022/03/22 09:47:03;;;;;;;6.83;5.10;;;15.80;38.50;;;;;;5015082;28;20194;-69
2022/03/22 09:49:29;;;;;;;9.80;6.30;;;16.10;39.10;;;;;;5014078;28;20452;-71
2022/03/22 09:51:56;;;;;;;5.57;5.00;;;16.10;37.70;;;;;;5014339;28;20475;-69
2022/03/22 09:54:22;;;;;;;8.53;7.23;;;15.50;38.40;;;;;;5014248;28;20477;-70
2022/03/22 09:56:49;;;;;;;7.77;6.17;;;15.10;39.30;;;;;;5014495;28;20463;-69
2022/03/22 09:59:17;;;;;;;6.67;5.00;;;15.50;39.00;;;;;;5014263;28;20413;-72
2022/03/22 10:01:43;;;;;;;7.00;6.30;;;15.80;38.20;;;;;;5014315;28;20473;-70
2022/03/22 10:04:15;;;;;;;6.10;5.50;;;15.50;37.30;;;;;;4996545;28;20429;-71
2022/03/22 10:06:57;;;;;;;6.60;6.00;;;15.40;37.70;;;;;;5013564;28;20448;-70
2022/03/22 10:09:28;;;;;;;7.90;5.67;;;14.90;37.60;;;;;;5014130;28;20483;-70
2022/03/22 10:11:54;;;;;;;6.37;5.67;;;14.50;38.50;;;;;;5014484;28;20424;-69
2022/03/22 10:14:19;;;;;;;6.13;5.20;;;14.30;38.90;;;;;;5013810;28;20435;-69
2022/03/22 10:16:50;;;;;;;10.13;6.70;;;13.80;38.80;;;;;;5013844;28;20643;-69
2022/03/22 10:19:24;;;;;;;6.03;5.27;;;14.20;38.80;;;;;;5014738;28;20173;-69
2022/03/22 10:21:49;;;;;;;5.97;4.50;;;14.30;38.50;;;;;;5017043;28;20415;-69
2022/03/22 10:24:15;;;;;;;7.27;5.40;;;14.30;37.90;;;;;;5013523;28;20447;-69
2022/03/22 10:26:44;;;;;;;8.27;5.93;;;14.00;38.00;;;;;;5012997;28;20213;-70
2022/03/22 10:29:11;;;;;;;5.00;4.20;;;13.90;38.20;;;;;;5015869;28;20271;-69
2022/03/22 10:31:39;;;;;;;8.97;5.73;;;13.90;38.00;;;;;;5013774;28;20466;-69
2022/03/22 10:34:05;;;;;;;5.00;4.60;;;13.50;38.90;;;;;;5014280;28;20446;-70
2022/03/22 10:36:36;;;;;;;5.23;4.73;;;13.60;38.30;;;;;;5013588;28;20412;-68
2022/03/22 10:39:05;;;;;;;10.07;5.27;;;13.70;38.80;;;;;;5013181;28;20513;-69
2022/03/22 10:41:32;;;;;;;5.23;4.73;;;13.80;38.40;;;;;;5013006;28;20558;-69
2022/03/22 10:44:13;;;;;;;5.43;4.60;;;13.80;37.90;;;;;;5013391;28;20418;-69
2022/03/22 10:46:42;;;;;;;5.30;4.80;;;13.70;38.20;;;;;;5013170;28;20407;-68
2022/03/22 10:49:09;;;;;;;7.73;5.50;;;13.70;38.10;;;;;;5013065;28;20467;-68
2022/03/22 10:51:40;;;;;;;6.93;5.00;;;13.90;37.90;;;;;;5013050;28;20407;-69
2022/03/22 10:54:06;;;;;;;6.87;4.80;;;13.90;38.40;;;;;;5012799;28;20431;-69
2022/03/22 10:56:33;;;;;;;5.30;4.80;;;13.90;37.60;;;;;;5012430;28;20550;-68
2022/03/22 10:58:59;;;;;;;8.37;5.03;;;13.60;37.40;;;;;;5013589;28;20176;-67
2022/03/22 11:01:25;;;;;;;6.47;4.77;;;13.90;38.50;;;;;;5009882;28;20431;-69
2022/03/22 11:03:56;;;;;;;8.23;5.00;;;13.80;36.80;;;;;;4993000;28;20448;-68
2022/03/22 11:06:25;;;;;;;5.07;4.23;;;13.90;36.70;;;;;;4993052;28;20177;-69
2022/03/22 11:08:50;;;;;;;10.73;4.90;;;13.90;36.80;;;;;;4992743;28;20928;-68
2022/03/22 11:11:17;;;;;;;5.83;4.67;;;14.00;37.30;;;;;;4975276;28;20515;-68
2022/03/22 11:13:42;;;;;;;5.93;5.43;;;14.10;36.80;;;;;;4993523;28;20541;-68
2022/03/22 11:16:08;;;;;;;5.20;4.30;;;14.20;37.10;;;;;;4992789;28;20436;-68
2022/03/22 11:18:35;;;;;;;8.27;4.57;;;14.10;36.30;;;;;;4992973;28;20173;-68
2022/03/22 11:21:03;;;;;;;5.40;3.87;;;14.30;36.40;;;;;;4992833;28;20436;-68
2022/03/22 11:23:33;;;;;;;5.60;3.60;;;14.30;34.70;;;;;;4993207;28;20507;-70
2022/03/22 11:26:09;;;;;;;6.20;4.43;;;14.20;35.20;;;;;;4992906;28;20434;-71
2022/03/22 11:28:35;;;;;;;9.50;5.40;;;14.40;35.80;;;;;;5008857;28;20589;-71
2022/03/22 11:31:02;;;;;;;6.73;4.50;;;14.60;36.40;;;;;;5006907;28;20428;-69
2022/03/22 11:36:18;;;;;;;6.23;4.47;;;14.50;36.10;;;;;;4996090;28;20496;-68
2022/03/22 11:38:54;;;;;;;4.93;4.40;;;14.70;35.10;;;;;;5012248;28;20949;-69
2022/03/22 11:44:12;;;;;;;6.73;4.07;;;15.00;35.00;;;;;;5013001;28;20442;-69
2022/03/22 11:46:38;;;;;;;5.23;4.13;;;14.80;35.50;;;;;;5011893;28;20415;-70
2022/03/22 11:49:14;;;;;;;7.33;5.20;;;14.90;35.50;;;;;;5010819;28;20954;-68
2022/03/22 11:52:12;;;;;;;5.63;4.10;;;14.90;35.30;;;;;;5012044;28;20403;-71
2022/03/22 11:54:38;;;;;;;5.17;4.67;;;14.90;35.40;;;;;;5011634;28;20914;-70
2022/03/22 11:57:05;;;;;;;9.60;5.13;;;14.80;34.90;;;;;;5011715;28;20403;-68
2022/03/22 11:59:42;;;;;;;9.40;6.60;;;15.00;36.00;;;;;;4992519;28;20945;-69
2022/03/22 12:02:15;;;;;;;5.20;4.67;;;15.20;36.50;;;;;;5000886;28;20415;-68
2022/03/22 12:04:55;;;;;;;5.60;4.00;;;15.20;34.90;;;;;;5011864;28;20530;-68
2022/03/22 12:07:29;;;;;;;6.00;4.30;;;15.20;34.80;;;;;;4992093;28;20407;-68
2022/03/22 12:10:05;;;;;;;6.47;4.20;;;15.20;34.40;;;;;;4992038;28;20996;-68
2022/03/22 12:12:32;;;;;;;5.90;5.30;;;15.20;34.70;;;;;;4992373;28;20400;-67
2022/03/22 12:15:00;;;;;;;4.43;3.90;;;15.20;35.00;;;;;;4992226;28;20428;-67
2022/03/22 12:17:26;;;;;;;6.43;4.33;;;15.30;34.70;;;;;;5005629;28;20410;-68
2022/03/22 12:19:52;;;;;;;10.07;7.13;;;15.40;35.70;;;;;;5023352;28;20415;-67
2022/03/22 12:22:22;;;;;;;7.10;4.80;;;15.70;36.00;;;;;;5031639;28;20402;-67
2022/03/22 12:24:49;;;;;;;7.97;5.17;;;15.70;34.90;;;;;;5031605;28;20662;-67
2022/03/22 12:27:15;;;;;;;5.83;4.20;;;15.90;35.50;;;;;;5031482;28;20463;-68
2022/03/22 12:29:43;;;;;;;7.57;4.37;;;15.70;33.80;;;;;;5031667;28;21031;-68
2022/03/22 12:32:17;;;;;;;5.83;4.57;;;15.90;34.70;;;;;;5014526;28;20178;-69
2022/03/22 12:34:44;;;;;;;5.83;4.23;;;15.80;33.70;;;;;;5011741;28;20427;-68
2022/03/22 12:37:11;;;;;;;7.60;4.17;;;15.80;34.30;;;;;;5012889;28;20419;-68
2022/03/22 12:39:38;;;;;;;6.30;4.40;;;15.70;34.40;;;;;;5012324;28;20414;-68
2022/03/22 12:42:04;;;;;;;7.57;4.43;;;15.60;34.00;;;;;;5011812;28;20497;-67
2022/03/22 12:44:31;;;;;;;9.70;3.80;;;15.70;33.90;;;;;;5011809;28;20432;-69
2022/03/22 12:46:56;;;;;;;5.23;3.80;;;15.80;33.70;;;;;;5011821;28;20534;-68
2022/03/22 12:49:23;;;;;;;5.10;3.50;;;15.80;33.40;;;;;;5011503;28;20470;-68
2022/03/22 12:51:48;;;;;;;4.10;3.70;;;16.00;33.20;;;;;;5011869;28;20173;-68
2022/03/22 12:54:17;;;;;;;7.60;3.87;;;16.00;33.00;;;;;;5011767;28;20447;-68
2022/03/22 12:56:47;;;;;;;4.90;4.40;;;16.00;33.00;;;;;;5011527;28;20187;-68
2022/03/22 12:59:23;;;;;;;4.03;3.27;;;16.30;32.80;;;;;;5012993;28;20407;-67
2022/03/22 13:01:58;;;;;;;5.40;3.50;;;16.30;32.40;;;;;;5015175;28;20453;-68
2022/03/22 13:04:29;;;;;;;4.93;3.03;;;16.50;32.70;;;;;;5015465;28;20450;-68
2022/03/22 13:07:04;;;;;;;6.33;3.50;;;16.50;31.40;;;;;;5016176;28;20415;-68
2022/03/22 13:12:16;;;;;;;6.57;5.20;;;16.70;32.00;;;;;;5015474;28;20500;-69
2022/03/22 13:17:34;;;;;;;5.27;3.50;;;16.90;32.40;;;;;;5015186;28;20777;-69
2022/03/22 13:20:02;;;;;;;5.90;4.13;;;16.80;30.70;;;;;;5014654;28;20777;-69
2022/03/22 13:22:28;;;;;;;7.63;4.73;;;17.00;32.40;;;;;;5015257;28;20521;-69
2022/03/22 13:25:08;;;;;;;3.80;3.47;;;17.10;33.20;;;;;;5015789;28;20433;-69
2022/03/22 13:27:34;;;;;;;4.40;3.23;;;17.10;30.90;;;;;;5017654;28;20185;-68